Time;durP1;ratioP1;P1;durP2;ratioP2;P2;SDS_P1;SDS_P2;PMS_P1;PMS_P2;Temp;Humidity;BMP_temperature;BMP_pressure;BME280_temperature;BME280_humidity;BME280_pressure;Samples;Min_cycle;Max_cycle;Signal;HPM_P1;HPM_P2
2021/01/16 05:02:23;;;;;;;6.35;5.60;;;-0.10;99.90;;;;;;5099884;23;20240;-70
2021/01/16 05:04:50;;;;;;;5.07;4.47;;;-0.10;99.90;;;;;;4957525;28;20622;-69
2021/01/16 05:07:19;;;;;;;4.93;4.45;;;-0.10;99.90;;;;;;4956421;28;20213;-69
2021/01/16 05:09:46;;;;;;;6.18;4.43;;;-0.10;99.90;;;;;;4957291;28;20677;-69
2021/01/16 05:12:27;;;;;;;4.32;4.05;;;0.00;99.90;;;;;;4952562;28;20226;-70
2021/01/16 05:15:05;;;;;;;4.75;4.30;;;-0.10;99.90;;;;;;4938579;29;20239;-74
2021/01/16 05:17:35;;;;;;;4.25;3.90;;;-0.10;99.90;;;;;;4938092;29;20689;-72
2021/01/16 05:20:03;;;;;;;8.00;4.78;;;-0.10;99.90;;;;;;4938895;29;20241;-71
2021/01/16 05:22:29;;;;;;;5.65;5.00;;;0.00;99.90;;;;;;4937182;29;20671;-70
2021/01/16 05:25:01;;;;;;;5.00;3.92;;;-0.10;99.90;;;;;;4937575;29;20240;-71
2021/01/16 05:27:33;;;;;;;8.35;5.47;;;-0.10;99.90;;;;;;4956996;28;20304;-70
2021/01/16 05:30:01;;;;;;;5.20;4.35;;;-0.10;99.90;;;;;;4958301;28;20709;-71
2021/01/16 05:32:32;;;;;;;7.63;4.75;;;-0.10;99.90;;;;;;4939740;29;20316;-75
2021/01/16 05:35:20;;;;;;;5.40;4.90;;;0.00;99.90;;;;;;4950888;29;20277;-74
2021/01/16 05:37:48;;;;;;;5.50;4.22;;;0.00;99.90;;;;;;4925164;29;20579;-72
2021/01/16 05:40:19;;;;;;;5.28;4.82;;;0.00;99.90;;;;;;4945101;28;20795;-72
2021/01/16 05:42:48;;;;;;;5.18;4.80;;;0.00;99.90;;;;;;4943197;28;20222;-71
2021/01/16 05:45:17;;;;;;;4.80;4.40;;;0.00;99.90;;;;;;4952152;29;20201;-72
2021/01/16 05:47:47;;;;;;;5.35;4.85;;;0.00;99.90;;;;;;4957502;28;20220;-71
2021/01/16 05:50:14;;;;;;;6.03;4.55;;;0.00;99.90;;;;;;4956083;28;20636;-69
2021/01/16 05:52:41;;;;;;;3.65;3.35;;;0.00;99.90;;;;;;4960644;28;20205;-69
2021/01/16 05:55:09;;;;;;;6.53;5.15;;;0.00;99.90;;;;;;4952175;28;20210;-71
2021/01/16 05:57:39;;;;;;;5.28;4.82;;;0.00;99.90;;;;;;4943097;29;20209;-71
2021/01/16 06:00:23;;;;;;;5.05;4.47;;;0.00;99.90;;;;;;4946632;29;20206;-72
2021/01/16 06:02:52;;;;;;;5.43;5.00;;;0.00;99.90;;;;;;4949297;28;20209;-72
2021/01/16 06:05:26;;;;;;;6.30;4.50;;;0.00;99.90;;;;;;4951851;29;20219;-72
2021/01/16 06:07:55;;;;;;;5.65;3.63;;;0.00;99.90;;;;;;4921802;29;20218;-72
2021/01/16 06:10:23;;;;;;;5.57;4.65;;;-0.10;99.90;;;;;;4939243;28;20320;-71
2021/01/16 06:12:57;;;;;;;6.22;4.90;;;0.00;99.90;;;;;;4954927;29;20241;-70
2021/01/16 06:15:34;;;;;;;6.13;5.45;;;-0.10;99.90;;;;;;4954473;28;20239;-74
2021/01/16 06:18:01;;;;;;;4.95;4.55;;;0.00;99.90;;;;;;4958423;28;20212;-74
2021/01/16 06:20:32;;;;;;;6.82;5.05;;;0.00;99.90;;;;;;4953292;28;20221;-74
2021/01/16 06:23:10;;;;;;;5.70;4.78;;;-0.10;99.90;;;;;;4936843;28;20233;-74
2021/01/16 06:25:37;;;;;;;5.47;4.68;;;-0.10;99.90;;;;;;4949079;29;20202;-74
2021/01/16 06:28:04;;;;;;;5.00;4.35;;;-0.10;99.90;;;;;;4957068;28;20228;-70
2021/01/16 06:30:34;;;;;;;6.82;5.55;;;-0.10;99.90;;;;;;4951031;28;20233;-70
2021/01/16 06:33:05;;;;;;;4.90;4.50;;;0.00;99.90;;;;;;4956545;29;20296;-70
2021/01/16 06:35:32;;;;;;;6.15;5.55;;;0.00;99.90;;;;;;4954757;28;20232;-70
2021/01/16 06:38:02;;;;;;;5.10;4.53;;;0.00;99.90;;;;;;4954637;28;20217;-70
2021/01/16 06:40:29;;;;;;;6.13;4.60;;;0.00;99.90;;;;;;4954434;28;20225;-70
2021/01/16 06:42:56;;;;;;;5.25;4.57;;;0.00;99.90;;;;;;4937718;28;20678;-70
2021/01/16 06:45:24;;;;;;;7.68;5.00;;;0.00;99.90;;;;;;4936544;29;20273;-69
2021/01/16 06:47:57;;;;;;;5.70;4.35;;;0.00;99.90;;;;;;4936102;28;20360;-70
2021/01/16 06:50:24;;;;;;;5.00;4.68;;;0.00;99.90;;;;;;4944116;28;20240;-69
2021/01/16 06:52:51;;;;;;;5.43;4.90;;;0.00;99.90;;;;;;4940486;28;20197;-69
2021/01/16 06:55:18;;;;;;;5.10;4.60;;;0.00;99.90;;;;;;4955071;28;20305;-69
2021/01/16 06:57:45;;;;;;;5.55;4.32;;;0.00;99.90;;;;;;4953661;28;20213;-69
2021/01/16 07:00:13;;;;;;;6.57;5.18;;;0.10;99.90;;;;;;4941355;28;20308;-69
2021/01/16 07:02:40;;;;;;;5.05;4.40;;;0.00;99.90;;;;;;4940075;28;20221;-69
2021/01/16 07:05:08;;;;;;;7.63;5.80;;;0.00;99.90;;;;;;4950779;28;20661;-70
2021/01/16 07:07:36;;;;;;;5.05;4.43;;;0.00;99.90;;;;;;4934949;29;20214;-71
2021/01/16 07:10:06;;;;;;;5.47;5.00;;;0.00;99.90;;;;;;4952498;29;20234;-69
2021/01/16 07:12:33;;;;;;;6.65;5.10;;;0.00;99.90;;;;;;4940852;28;20217;-71
2021/01/16 07:14:59;;;;;;;6.10;5.30;;;0.00;99.90;;;;;;4951351;29;20263;-71
2021/01/16 07:17:27;;;;;;;4.78;4.25;;;0.00;99.90;;;;;;4935620;29;20206;-72
2021/01/16 07:19:56;;;;;;;5.97;4.50;;;0.00;99.90;;;;;;4946280;29;20574;-71
2021/01/16 07:22:27;;;;;;;4.65;4.35;;;-0.10;99.90;;;;;;4954482;28;20320;-71
2021/01/16 07:24:54;;;;;;;4.55;4.18;;;-0.10;99.90;;;;;;4938863;28;20210;-71
2021/01/16 07:27:23;;;;;;;6.60;4.85;;;-0.10;99.90;;;;;;4954856;28;20275;-72
2021/01/16 07:29:49;;;;;;;5.20;4.70;;;-0.10;99.90;;;;;;4944746;28;20208;-72
2021/01/16 07:32:16;;;;;;;5.55;4.72;;;-0.10;99.90;;;;;;4936473;28;20225;-72
2021/01/16 07:34:44;;;;;;;7.05;4.75;;;-0.20;99.90;;;;;;4954222;28;20209;-72
2021/01/16 07:37:11;;;;;;;5.32;4.85;;;-0.20;99.90;;;;;;4938280;28;20261;-73
2021/01/16 07:39:40;;;;;;;8.55;4.50;;;-0.20;99.90;;;;;;4948270;29;20709;-72
2021/01/16 07:42:11;;;;;;;6.90;4.82;;;-0.30;99.90;;;;;;4935360;29;20226;-69
2021/01/16 07:44:44;;;;;;;6.80;5.03;;;-0.30;99.90;;;;;;4939654;29;20217;-69
2021/01/16 07:47:23;;;;;;;7.68;5.07;;;-0.30;99.90;;;;;;4946967;29;20634;-68
2021/01/16 07:49:54;;;;;;;7.28;5.05;;;-0.30;99.90;;;;;;4944864;28;20545;-69
2021/01/16 07:52:26;;;;;;;6.90;5.85;;;-0.30;99.90;;;;;;4941454;28;20226;-69
2021/01/16 07:55:07;;;;;;;7.43;6.68;;;-0.30;99.90;;;;;;4949148;29;20577;-69
2021/01/16 07:57:33;;;;;;;6.68;5.50;;;-0.20;99.90;;;;;;4936407;28;20329;-70
2021/01/16 08:00:07;;;;;;;7.13;5.00;;;-0.30;99.90;;;;;;4953546;29;20193;-71
2021/01/16 08:02:39;;;;;;;8.15;5.68;;;-0.30;99.90;;;;;;4952374;28;20213;-71
2021/01/16 08:05:19;;;;;;;5.60;4.75;;;-0.30;99.90;;;;;;4943526;28;20205;-70
2021/01/16 08:08:09;;;;;;;6.45;5.75;;;-0.30;99.90;;;;;;4954753;29;20653;-70
2021/01/16 08:10:36;;;;;;;5.30;4.68;;;-0.30;99.90;;;;;;4948597;28;20230;-70
2021/01/16 08:13:08;;;;;;;5.72;4.72;;;-0.30;99.90;;;;;;4948285;29;20225;-70
2021/01/16 08:15:39;;;;;;;9.60;7.13;;;-0.30;99.90;;;;;;4938412;29;20465;-69
2021/01/16 08:18:10;;;;;;;5.53;5.00;;;-0.10;99.90;;;;;;4953983;28;20469;-70
2021/01/16 08:20:39;;;;;;;5.47;4.88;;;-0.10;99.90;;;;;;4954411;28;20237;-71
2021/01/16 08:23:06;;;;;;;6.63;4.88;;;-0.10;99.90;;;;;;4953154;28;20284;-72
2021/01/16 08:25:33;;;;;;;5.60;5.07;;;-0.10;99.90;;;;;;4953863;28;20215;-73
2021/01/16 08:28:01;;;;;;;5.63;5.10;;;-0.10;99.90;;;;;;4935132;29;20209;-73
2021/01/16 08:30:29;;;;;;;6.18;5.20;;;-0.10;99.90;;;;;;4935522;29;20236;-74
2021/01/16 08:32:58;;;;;;;7.80;5.50;;;-0.10;99.90;;;;;;4934617;29;20224;-73
2021/01/16 08:35:26;;;;;;;5.05;4.55;;;-0.10;99.90;;;;;;4935414;29;20264;-73
2021/01/16 08:37:53;;;;;;;7.07;5.65;;;0.00;99.90;;;;;;4934355;29;20674;-73
2021/01/16 08:40:34;;;;;;;5.20;4.47;;;0.00;99.90;;;;;;4935517;29;20202;-73
2021/01/16 08:43:01;;;;;;;5.32;4.93;;;0.00;99.90;;;;;;4935184;29;20261;-70
2021/01/16 08:45:27;;;;;;;6.10;5.18;;;0.10;99.90;;;;;;4950612;28;20217;-73
2021/01/16 08:47:55;;;;;;;6.85;4.88;;;0.10;99.90;;;;;;4935448;28;20666;-73
2021/01/16 08:50:27;;;;;;;6.57;5.93;;;0.10;99.90;;;;;;4935196;29;20233;-72
2021/01/16 08:52:53;;;;;;;7.05;5.72;;;0.20;99.90;;;;;;4939057;29;20273;-73
2021/01/16 08:55:25;;;;;;;4.63;4.32;;;0.20;99.90;;;;;;4951267;28;20205;-72
2021/01/16 08:58:06;;;;;;;4.93;4.45;;;0.20;99.90;;;;;;4932828;29;20741;-73
2021/01/16 09:00:33;;;;;;;10.18;6.88;;;0.20;99.90;;;;;;4934115;29;20227;-71
2021/01/16 09:03:08;;;;;;;9.50;7.15;;;0.20;99.90;;;;;;4948855;28;20213;-70
2021/01/16 09:05:35;;;;;;;11.20;7.47;;;0.30;99.90;;;;;;4951515;28;20244;-71
2021/01/16 09:08:02;;;;;;;9.68;6.50;;;0.20;99.90;;;;;;4933635;29;20520;-71
2021/01/16 09:10:32;;;;;;;6.65;5.72;;;0.20;99.90;;;;;;4934955;29;20261;-70
2021/01/16 09:12:59;;;;;;;4.80;4.50;;;0.20;99.90;;;;;;4941305;28;20206;-70
2021/01/16 09:15:28;;;;;;;6.72;6.03;;;0.20;99.90;;;;;;4953829;28;20303;-71
2021/01/16 09:18:08;;;;;;;5.43;4.93;;;0.20;99.90;;;;;;4941621;28;20209;-70
2021/01/16 09:20:37;;;;;;;5.82;4.80;;;0.20;99.90;;;;;;4937907;29;20720;-72
2021/01/16 09:23:24;;;;;;;6.03;5.53;;;0.20;99.90;;;;;;4941875;28;20266;-73
2021/01/16 09:25:51;;;;;;;6.63;5.10;;;0.30;99.90;;;;;;4948933;29;20206;-73
2021/01/16 09:28:37;;;;;;;6.80;5.97;;;0.20;99.90;;;;;;4937807;29;20222;-74
2021/01/16 09:31:19;;;;;;;5.05;4.60;;;0.20;99.90;;;;;;4945931;29;20241;-72
2021/01/16 09:33:46;;;;;;;5.13;4.20;;;0.30;99.90;;;;;;4956438;28;20240;-73
2021/01/16 09:36:32;;;;;;;5.25;4.75;;;0.30;99.90;;;;;;4944825;29;20205;-73
2021/01/16 09:38:59;;;;;;;6.28;5.07;;;0.40;99.90;;;;;;4952577;28;20205;-73
2021/01/16 09:41:32;;;;;;;10.65;7.10;;;0.50;99.90;;;;;;4927545;29;20226;-73
2021/01/16 09:43:58;;;;;;;6.97;4.93;;;0.50;99.90;;;;;;4948224;29;20216;-73
2021/01/16 09:46:33;;;;;;;6.30;5.03;;;0.60;99.90;;;;;;4937503;29;20210;-73
2021/01/16 09:48:59;;;;;;;6.25;5.45;;;0.60;99.90;;;;;;4937623;29;20220;-70
2021/01/16 09:51:30;;;;;;;7.43;5.63;;;0.70;99.90;;;;;;4953152;28;20233;-70
2021/01/16 09:54:11;;;;;;;5.28;4.75;;;0.70;99.90;;;;;;4943790;28;20238;-71
2021/01/16 09:56:41;;;;;;;5.80;5.07;;;0.70;99.90;;;;;;4948148;29;20252;-70
2021/01/16 09:59:08;;;;;;;7.65;5.13;;;0.80;99.90;;;;;;4937010;28;20237;-71
2021/01/16 10:01:34;;;;;;;5.53;4.15;;;0.80;99.90;;;;;;4936903;29;20222;-71
2021/01/16 10:04:04;;;;;;;3.72;3.42;;;0.90;99.90;;;;;;4956733;29;20201;-73
2021/01/16 10:06:33;;;;;;;4.03;3.65;;;0.90;99.90;;;;;;4963138;28;20210;-73
2021/01/16 10:09:00;;;;;;;3.65;3.42;;;1.00;99.90;;;;;;4962424;29;20216;-73
2021/01/16 10:11:41;;;;;;;4.82;3.75;;;1.00;99.90;;;;;;4961026;28;20229;-73
2021/01/16 10:14:12;;;;;;;4.13;3.55;;;1.10;99.90;;;;;;4962265;29;20209;-72
2021/01/16 10:16:39;;;;;;;3.83;3.50;;;1.20;99.90;;;;;;4962467;29;20202;-72
2021/01/16 10:19:07;;;;;;;5.07;3.88;;;1.20;99.90;;;;;;4973007;28;20205;-72
2021/01/16 10:21:34;;;;;;;3.30;3.10;;;1.30;99.90;;;;;;4971720;28;20679;-72
2021/01/16 10:24:16;;;;;;;2.10;2.00;;;1.30;99.90;;;;;;4969092;28;20236;-73
2021/01/16 10:26:43;;;;;;;3.45;3.25;;;1.30;99.90;;;;;;4955900;28;20201;-73
2021/01/16 10:29:18;;;;;;;5.57;5.05;;;1.30;99.90;;;;;;4956496;28;20220;-73
2021/01/16 10:31:45;;;;;;;5.18;3.80;;;1.20;99.90;;;;;;4938416;28;20245;-73
2021/01/16 10:34:12;;;;;;;9.80;5.43;;;1.20;99.90;;;;;;4951964;29;20234;-73
2021/01/16 10:36:40;;;;;;;5.30;4.05;;;1.20;99.90;;;;;;4949030;28;20209;-73
2021/01/16 10:39:10;;;;;;;9.40;5.93;;;1.20;99.90;;;;;;4941346;28;20686;-73
2021/01/16 10:41:37;;;;;;;13.05;6.15;;;1.20;99.90;;;;;;4952468;28;20740;-71
2021/01/16 10:44:05;;;;;;;7.22;4.15;;;1.30;99.90;;;;;;4938631;29;20251;-70
2021/01/16 10:46:38;;;;;;;4.35;4.05;;;1.30;99.90;;;;;;4940878;29;20340;-71
2021/01/16 10:49:16;;;;;;;4.15;3.90;;;1.30;99.90;;;;;;4948498;29;20217;-69
2021/01/16 10:51:52;;;;;;;3.50;3.20;;;1.40;99.90;;;;;;4939937;28;20236;-70
2021/01/16 10:54:19;;;;;;;2.88;2.67;;;1.40;99.90;;;;;;4954429;28;20286;-69
2021/01/16 10:56:59;;;;;;;3.00;2.80;;;1.50;99.90;;;;;;4941326;28;20297;-69
2021/01/16 10:59:26;;;;;;;2.97;2.88;;;1.50;99.90;;;;;;4940598;29;20206;-70
2021/01/16 11:01:52;;;;;;;3.10;2.80;;;1.50;99.90;;;;;;4936604;29;20257;-70
2021/01/16 11:04:24;;;;;;;3.95;3.67;;;1.50;99.90;;;;;;4936403;29;20206;-71
2021/01/16 11:06:54;;;;;;;3.17;2.90;;;1.60;99.90;;;;;;4947466;29;20615;-69
2021/01/16 11:09:47;;;;;;;3.65;2.95;;;1.70;99.90;;;;;;4939715;28;20216;-70
2021/01/16 11:12:25;;;;;;;3.22;2.83;;;1.70;99.90;;;;;;4915443;29;20601;-70
2021/01/16 11:14:52;;;;;;;3.00;2.80;;;1.70;99.90;;;;;;4946292;28;20293;-74
2021/01/16 11:17:18;;;;;;;3.20;3.00;;;1.70;99.90;;;;;;4945084;29;20217;-73
2021/01/16 11:19:46;;;;;;;2.47;2.38;;;1.80;99.90;;;;;;4954154;28;20300;-73
2021/01/16 11:22:15;;;;;;;6.70;5.57;;;1.80;99.90;;;;;;4947763;28;20222;-73
2021/01/16 11:25:08;;;;;;;3.40;3.15;;;1.80;99.90;;;;;;4937119;29;20198;-74
2021/01/16 11:27:36;;;;;;;3.28;3.00;;;1.80;99.90;;;;;;4939888;29;20213;-71
2021/01/16 11:30:07;;;;;;;5.07;4.60;;;1.90;99.90;;;;;;4932467;29;20245;-73
2021/01/16 11:32:38;;;;;;;3.35;3.15;;;1.90;99.90;;;;;;4934209;29;20210;-72
2021/01/16 11:35:09;;;;;;;2.75;2.65;;;1.90;99.90;;;;;;4940496;29;20284;-72
2021/01/16 11:37:50;;;;;;;2.88;2.67;;;2.00;99.90;;;;;;4954192;28;20217;-73
2021/01/16 11:40:25;;;;;;;3.25;3.03;;;2.00;99.90;;;;;;4952867;28;20248;-73
2021/01/16 11:42:53;;;;;;;3.10;2.80;;;2.00;99.90;;;;;;4938472;28;20213;-73
2021/01/16 11:45:19;;;;;;;2.63;2.53;;;2.10;99.90;;;;;;4943160;29;20206;-71
2021/01/16 11:47:50;;;;;;;4.25;3.92;;;2.10;99.90;;;;;;4933900;29;20586;-72
2021/01/16 11:50:17;;;;;;;3.80;3.50;;;2.00;99.90;;;;;;4934329;28;20249;-72
2021/01/16 11:52:43;;;;;;;3.30;3.00;;;2.00;99.90;;;;;;4948208;29;20606;-71
2021/01/16 11:55:11;;;;;;;7.18;4.95;;;2.00;99.90;;;;;;4953776;28;20213;-71
2021/01/16 11:57:38;;;;;;;3.78;3.53;;;1.90;99.90;;;;;;4951329;28;20577;-72
2021/01/16 12:00:06;;;;;;;3.63;3.33;;;1.90;99.90;;;;;;4949621;28;20217;-72
2021/01/16 12:02:32;;;;;;;4.53;3.00;;;1.90;99.90;;;;;;4934884;28;20266;-72
2021/01/16 12:04:59;;;;;;;8.25;4.30;;;1.90;99.90;;;;;;4934645;29;20297;-73
2021/01/16 12:07:26;;;;;;;5.13;4.50;;;1.90;99.90;;;;;;4934013;29;20221;-72
2021/01/16 12:09:55;;;;;;;4.32;3.90;;;1.90;99.90;;;;;;4936458;29;20293;-72
2021/01/16 12:12:30;;;;;;;4.70;4.18;;;1.90;99.90;;;;;;4950902;28;20237;-72
2021/01/16 12:14:56;;;;;;;4.20;3.88;;;1.90;99.90;;;;;;4952142;28;20237;-72
2021/01/16 12:17:22;;;;;;;5.03;4.63;;;1.90;99.90;;;;;;4950105;28;20290;-72
2021/01/16 12:19:50;;;;;;;6.30;4.43;;;1.90;99.90;;;;;;4951829;28;20205;-72
2021/01/16 12:22:20;;;;;;;3.47;3.28;;;1.90;99.90;;;;;;4952967;28;20304;-72
2021/01/16 12:24:47;;;;;;;5.35;3.80;;;1.90;99.90;;;;;;4952094;28;20264;-70
2021/01/16 12:27:13;;;;;;;3.47;3.20;;;1.90;99.90;;;;;;4950566;29;20210;-71
2021/01/16 12:29:44;;;;;;;3.67;3.38;;;1.90;99.90;;;;;;4935189;29;20693;-73
2021/01/16 12:32:11;;;;;;;4.38;3.97;;;1.90;99.90;;;;;;4934679;29;20229;-73
2021/01/16 12:34:48;;;;;;;3.83;3.45;;;1.90;99.90;;;;;;4934494;29;20658;-73
2021/01/16 12:37:25;;;;;;;4.70;4.30;;;1.90;99.90;;;;;;4934371;29;20221;-73
2021/01/16 12:39:51;;;;;;;3.83;3.22;;;1.90;99.90;;;;;;4915608;29;20232;-73
2021/01/16 12:42:18;;;;;;;3.53;3.33;;;1.90;99.90;;;;;;4937261;29;20225;-73
2021/01/16 12:44:45;;;;;;;5.15;4.63;;;1.80;99.90;;;;;;4953618;28;20256;-73
2021/01/16 12:47:18;;;;;;;6.30;4.60;;;1.80;99.90;;;;;;4953536;28;20209;-73
2021/01/16 12:49:48;;;;;;;4.25;3.95;;;1.80;99.90;;;;;;4934661;29;20210;-73
2021/01/16 12:52:22;;;;;;;4.47;4.10;;;1.80;99.90;;;;;;4934722;29;20577;-73
2021/01/16 12:55:00;;;;;;;5.03;4.53;;;1.70;99.90;;;;;;4937262;29;20209;-70
2021/01/16 12:57:31;;;;;;;6.72;6.20;;;1.70;99.90;;;;;;4937646;29;20209;-71
2021/01/16 12:59:59;;;;;;;4.55;4.25;;;1.70;99.90;;;;;;4956606;28;20239;-70
2021/01/16 13:02:26;;;;;;;7.35;4.03;;;1.70;99.90;;;;;;4956320;28;20237;-71
2021/01/16 13:04:54;;;;;;;4.43;4.00;;;1.70;99.90;;;;;;4956627;28;20221;-70
2021/01/16 13:07:22;;;;;;;3.80;3.50;;;1.70;99.90;;;;;;4956033;28;20658;-71
2021/01/16 13:09:48;;;;;;;3.40;3.17;;;1.70;99.90;;;;;;4940459;29;20208;-71
2021/01/16 13:12:15;;;;;;;3.85;3.50;;;1.70;99.90;;;;;;4943586;28;20252;-71
2021/01/16 13:14:50;;;;;;;4.38;3.83;;;1.70;99.90;;;;;;4937318;28;20273;-71
2021/01/16 13:17:22;;;;;;;3.47;3.17;;;1.70;99.90;;;;;;4937439;29;20213;-71
2021/01/16 13:19:51;;;;;;;3.85;3.50;;;1.80;99.90;;;;;;4955842;29;20256;-71
2021/01/16 13:22:19;;;;;;;3.75;3.45;;;1.70;99.90;;;;;;4955790;28;20221;-71
2021/01/16 13:24:57;;;;;;;8.68;7.85;;;1.70;99.90;;;;;;4955986;28;20210;-71
2021/01/16 13:27:26;;;;;;;8.48;7.68;;;1.70;99.90;;;;;;4956534;28;20552;-71
2021/01/16 13:29:54;;;;;;;5.55;5.05;;;1.70;99.90;;;;;;4937445;29;20273;-70
2021/01/16 13:32:24;;;;;;;5.88;4.13;;;1.70;99.90;;;;;;4936781;29;20233;-70
2021/01/16 13:34:57;;;;;;;5.25;4.75;;;1.70;99.90;;;;;;4937112;29;20305;-70
2021/01/16 13:37:25;;;;;;;4.43;4.13;;;1.70;99.90;;;;;;4941814;28;20261;-71
2021/01/16 13:39:53;;;;;;;4.75;4.35;;;1.70;99.90;;;;;;4954085;28;20531;-70
2021/01/16 13:42:21;;;;;;;5.57;5.10;;;1.70;99.90;;;;;;4951420;29;20729;-70
2021/01/16 13:44:52;;;;;;;10.13;7.15;;;1.60;99.90;;;;;;4956219;28;20232;-70
2021/01/16 13:47:18;;;;;;;4.70;4.30;;;1.70;99.90;;;;;;4955954;28;20213;-69
2021/01/16 13:49:45;;;;;;;5.80;5.30;;;1.60;99.90;;;;;;4955984;28;20213;-70
2021/01/16 13:52:11;;;;;;;7.05;6.43;;;1.60;99.90;;;;;;4955112;28;20613;-69
2021/01/16 13:54:39;;;;;;;6.22;5.68;;;1.60;99.90;;;;;;4955646;28;20206;-69
2021/01/16 13:57:17;;;;;;;7.00;4.80;;;1.60;99.90;;;;;;4955812;28;20213;-70
2021/01/16 13:59:53;;;;;;;5.78;4.75;;;1.60;99.90;;;;;;4955710;28;20212;-70
2021/01/16 14:02:26;;;;;;;8.93;5.72;;;1.50;99.90;;;;;;4917132;29;20241;-70
2021/01/16 14:04:53;;;;;;;5.43;4.93;;;1.50;99.90;;;;;;4917179;29;20279;-70
2021/01/16 14:07:28;;;;;;;5.40;4.85;;;1.50;99.90;;;;;;4917207;29;20214;-69
2021/01/16 14:09:54;;;;;;;4.40;4.03;;;1.40;99.90;;;;;;4935884;29;20213;-69
2021/01/16 14:12:20;;;;;;;5.97;4.72;;;1.40;99.90;;;;;;4952783;29;20678;-70
2021/01/16 14:14:48;;;;;;;4.90;4.50;;;1.40;99.90;;;;;;4955328;28;20213;-71
2021/01/16 14:17:19;;;;;;;7.20;5.45;;;1.40;99.90;;;;;;4955586;28;20307;-70
2021/01/16 14:19:56;;;;;;;7.22;6.28;;;1.30;99.90;;;;;;4940313;28;20214;-70
2021/01/16 14:22:35;;;;;;;6.38;5.53;;;1.30;99.90;;;;;;4935667;29;20221;-71
2021/01/16 14:25:02;;;;;;;8.00;5.60;;;1.30;99.90;;;;;;4949689;29;20212;-70
2021/01/16 14:27:39;;;;;;;6.68;6.07;;;1.30;99.90;;;;;;4938322;28;20209;-70
2021/01/16 14:30:07;;;;;;;5.93;5.32;;;1.20;99.90;;;;;;4954188;28;20672;-71
2021/01/16 14:32:33;;;;;;;8.65;6.20;;;1.20;99.90;;;;;;4947146;28;20226;-71
2021/01/16 14:35:00;;;;;;;6.28;5.55;;;1.20;99.90;;;;;;4936357;29;20214;-70
2021/01/16 14:37:28;;;;;;;7.57;5.55;;;1.20;99.90;;;;;;4950864;29;20632;-70
2021/01/16 14:39:54;;;;;;;6.82;6.22;;;1.20;99.90;;;;;;4948812;28;20198;-70
2021/01/16 14:42:20;;;;;;;8.60;6.47;;;1.10;99.90;;;;;;4937380;29;20224;-70
2021/01/16 14:44:47;;;;;;;7.50;6.80;;;1.10;99.90;;;;;;4954342;28;20200;-70
2021/01/16 14:47:14;;;;;;;8.13;7.25;;;1.10;99.90;;;;;;4940662;28;20206;-70
2021/01/16 14:49:40;;;;;;;10.05;7.68;;;1.10;99.90;;;;;;4947240;29;20233;-70
2021/01/16 14:52:10;;;;;;;10.07;7.47;;;1.00;99.90;;;;;;4948843;28;20229;-70
2021/01/16 14:54:50;;;;;;;8.45;6.32;;;1.00;99.90;;;;;;4947650;29;20216;-70
2021/01/16 14:57:17;;;;;;;6.22;5.70;;;0.90;99.90;;;;;;4936492;29;20209;-70
2021/01/16 14:59:44;;;;;;;6.57;5.97;;;0.90;99.90;;;;;;4943455;28;20201;-70
2021/01/16 15:02:18;;;;;;;7.80;5.53;;;0.80;99.90;;;;;;4943460;28;20994;-72
2021/01/16 15:04:45;;;;;;;7.43;5.80;;;0.80;99.90;;;;;;4924765;29;20218;-70
2021/01/16 15:07:22;;;;;;;5.68;4.97;;;0.80;99.90;;;;;;4932675;29;20213;-70
2021/01/16 15:09:55;;;;;;;7.15;6.18;;;0.70;99.90;;;;;;4931020;29;20580;-70
2021/01/16 15:12:22;;;;;;;7.30;5.95;;;0.70;99.90;;;;;;4928201;29;20293;-71
2021/01/16 15:14:51;;;;;;;6.00;5.40;;;0.70;99.90;;;;;;4926547;29;20214;-69
2021/01/16 15:17:18;;;;;;;6.22;5.60;;;0.70;99.90;;;;;;4928555;29;20298;-73
2021/01/16 15:19:44;;;;;;;8.27;5.53;;;0.60;99.90;;;;;;4931980;29;20549;-70
2021/01/16 15:22:12;;;;;;;8.25;5.72;;;0.70;99.90;;;;;;4930665;29;20218;-70
2021/01/16 15:24:39;;;;;;;8.00;5.63;;;0.70;99.90;;;;;;4925375;29;20214;-70
2021/01/16 15:27:06;;;;;;;9.10;7.38;;;0.60;99.90;;;;;;4928713;28;20217;-69
2021/01/16 15:29:32;;;;;;;9.50;7.68;;;0.60;99.90;;;;;;4932511;29;20342;-70
2021/01/16 15:31:58;;;;;;;13.80;8.90;;;0.60;99.90;;;;;;4952674;28;20233;-70
2021/01/16 15:34:35;;;;;;;9.90;7.32;;;0.50;99.90;;;;;;4935486;29;20253;-70
2021/01/16 15:37:03;;;;;;;9.93;7.10;;;0.50;99.90;;;;;;4935261;29;20225;-71
2021/01/16 15:39:40;;;;;;;12.65;7.75;;;0.50;99.90;;;;;;4952235;28;20212;-70
2021/01/16 15:42:20;;;;;;;8.13;7.18;;;0.50;99.90;;;;;;4935674;29;20229;-70
2021/01/16 15:44:46;;;;;;;8.10;6.50;;;0.40;99.90;;;;;;4940424;29;20209;-70
2021/01/16 15:47:13;;;;;;;7.82;6.38;;;0.40;99.90;;;;;;4950800;29;20221;-70
2021/01/16 15:49:40;;;;;;;8.40;7.13;;;0.40;99.90;;;;;;4947731;28;20217;-69
2021/01/16 15:52:06;;;;;;;6.82;6.18;;;0.30;99.90;;;;;;4936353;29;20231;-70
2021/01/16 15:54:33;;;;;;;6.57;5.32;;;0.30;99.90;;;;;;4948145;29;20241;-70
2021/01/16 15:57:00;;;;;;;7.25;5.93;;;0.30;99.90;;;;;;4955374;28;20582;-69
2021/01/16 15:59:27;;;;;;;5.00;4.70;;;0.30;99.90;;;;;;4938284;29;20220;-70
2021/01/16 16:01:53;;;;;;;15.30;5.57;;;0.30;99.90;;;;;;4935717;28;20268;-70
2021/01/16 16:04:21;;;;;;;6.72;5.80;;;0.20;99.90;;;;;;4947278;29;20213;-69
2021/01/16 16:06:59;;;;;;;6.50;5.72;;;0.20;99.90;;;;;;4949634;28;20209;-70
2021/01/16 16:09:25;;;;;;;6.43;5.40;;;0.20;99.90;;;;;;4935472;29;20357;-69
2021/01/16 16:11:51;;;;;;;6.75;5.60;;;0.20;99.90;;;;;;4952936;28;20225;-70
2021/01/16 16:14:19;;;;;;;7.75;6.15;;;0.20;99.90;;;;;;4948771;28;20201;-72
2021/01/16 16:16:45;;;;;;;6.93;6.18;;;0.20;99.90;;;;;;4949749;28;20217;-70
2021/01/16 16:19:11;;;;;;;7.38;5.88;;;0.20;99.90;;;;;;4943057;28;20233;-70
2021/01/16 16:21:37;;;;;;;6.40;5.80;;;0.20;99.90;;;;;;4940458;28;20277;-73
2021/01/16 16:24:04;;;;;;;7.75;6.40;;;0.20;99.90;;;;;;4935645;28;20229;-70
2021/01/16 16:26:30;;;;;;;13.25;7.10;;;0.20;99.90;;;;;;4935084;28;20292;-70
2021/01/16 16:28:56;;;;;;;8.52;6.60;;;0.20;99.90;;;;;;4947718;29;20221;-69
2021/01/16 16:31:23;;;;;;;11.38;6.78;;;0.20;99.90;;;;;;4957930;29;20225;-69
2021/01/16 16:33:51;;;;;;;6.10;5.50;;;0.20;99.90;;;;;;4953925;28;20336;-70
2021/01/16 16:36:17;;;;;;;7.78;6.97;;;0.20;99.90;;;;;;4972532;29;20209;-70
2021/01/16 16:38:44;;;;;;;10.55;7.20;;;0.20;99.90;;;;;;4973267;28;20200;-69
2021/01/16 16:41:10;;;;;;;8.60;6.60;;;0.20;99.90;;;;;;4969424;28;20225;-70
2021/01/16 16:43:38;;;;;;;12.77;7.00;;;0.20;99.90;;;;;;4958760;28;20205;-70
2021/01/16 16:46:04;;;;;;;9.27;6.72;;;0.20;99.90;;;;;;4944950;28;20229;-71
2021/01/16 16:48:31;;;;;;;8.43;6.63;;;0.20;99.90;;;;;;4946849;29;20219;-70
2021/01/16 16:50:58;;;;;;;7.47;6.20;;;0.20;99.90;;;;;;4944766;28;20284;-70
2021/01/16 16:53:24;;;;;;;7.25;5.50;;;0.30;99.90;;;;;;4936444;29;20266;-70
2021/01/16 16:55:50;;;;;;;4.95;4.65;;;0.30;99.90;;;;;;4949324;29;20209;-70
2021/01/16 16:58:19;;;;;;;5.22;4.72;;;0.20;99.90;;;;;;4957981;28;20210;-69
2021/01/16 17:00:46;;;;;;;6.10;5.63;;;0.30;99.90;;;;;;4941338;28;20261;-69
2021/01/16 17:03:12;;;;;;;8.00;5.75;;;0.20;99.90;;;;;;4954043;28;20244;-69
2021/01/16 17:05:39;;;;;;;9.32;6.95;;;0.20;99.90;;;;;;4942316;28;20210;-71
2021/01/16 17:08:06;;;;;;;7.72;6.93;;;0.20;99.90;;;;;;4950616;29;20540;-71
2021/01/16 17:10:34;;;;;;;7.93;7.13;;;0.20;99.90;;;;;;4945848;28;20233;-71
2021/01/16 17:13:02;;;;;;;5.78;5.25;;;0.20;99.90;;;;;;4952911;29;20205;-70
2021/01/16 17:15:29;;;;;;;6.15;5.65;;;0.20;99.90;;;;;;4942717;28;20277;-70
2021/01/16 17:17:59;;;;;;;6.35;5.80;;;0.10;99.90;;;;;;4943866;29;20260;-71
2021/01/16 17:20:25;;;;;;;9.23;7.25;;;0.10;99.90;;;;;;4946015;28;20230;-72
2021/01/16 17:22:52;;;;;;;8.05;6.55;;;0.10;99.90;;;;;;4942147;29;20209;-73
2021/01/16 17:25:18;;;;;;;12.50;7.90;;;0.10;99.90;;;;;;4946817;29;20202;-73
2021/01/16 17:27:46;;;;;;;10.73;8.18;;;0.10;99.90;;;;;;4956094;28;20214;-72
2021/01/16 17:30:13;;;;;;;10.88;8.93;;;0.10;99.90;;;;;;4952647;28;20209;-73
2021/01/16 17:32:40;;;;;;;14.00;8.98;;;0.10;99.90;;;;;;4955950;28;20240;-72
2021/01/16 17:35:07;;;;;;;10.40;7.50;;;0.00;99.90;;;;;;4948466;28;20233;-72
2021/01/16 17:37:34;;;;;;;10.45;8.45;;;0.00;99.90;;;;;;4936852;28;20683;-74
2021/01/16 17:40:01;;;;;;;62.28;35.38;;;0.00;99.90;;;;;;4938571;28;20221;-72
2021/01/16 17:42:27;;;;;;;50.20;27.58;;;0.00;99.90;;;;;;4938122;29;20286;-73
2021/01/16 17:44:53;;;;;;;51.15;27.45;;;0.00;99.90;;;;;;4947194;29;20205;-72
2021/01/16 17:47:19;;;;;;;33.47;20.52;;;0.00;99.90;;;;;;4957707;28;20224;-71
2021/01/16 17:49:46;;;;;;;19.42;12.70;;;0.00;99.90;;;;;;4949221;28;20218;-71
2021/01/16 17:52:14;;;;;;;18.40;11.88;;;0.00;99.90;;;;;;4936584;29;20731;-71
2021/01/16 17:54:42;;;;;;;71.35;35.25;;;0.00;99.90;;;;;;4951202;29;20222;-72
2021/01/16 17:57:10;;;;;;;19.90;12.98;;;0.10;99.90;;;;;;4954439;28;20216;-74
2021/01/16 17:59:37;;;;;;;38.13;19.30;;;0.10;99.90;;;;;;4949336;28;20272;-73
2021/01/16 18:02:03;;;;;;;22.40;14.15;;;0.10;99.90;;;;;;4954294;28;20233;-72
2021/01/16 18:04:31;;;;;;;14.80;10.07;;;0.10;99.90;;;;;;4951002;29;20209;-73
2021/01/16 18:06:57;;;;;;;13.25;8.52;;;0.10;99.90;;;;;;4947077;28;20212;-72